sensor_id;sensor_type;location;lat;lon;timestamp;temperature;humidity
45785;DHT22;31489;51.404;5.474;2023-11-19T00:00:36;16.00;91.60
45785;DHT22;31489;51.404;5.474;2023-11-19T00:03:01;16.00;91.60
45785;DHT22;31489;51.404;5.474;2023-11-19T00:05:27;16.00;91.50
45785;DHT22;31489;51.404;5.474;2023-11-19T00:07:53;16.00;91.50
45785;DHT22;31489;51.404;5.474;2023-11-19T00:10:19;16.00;91.60
45785;DHT22;31489;51.404;5.474;2023-11-19T00:12:48;16.00;91.50
45785;DHT22;31489;51.404;5.474;2023-11-19T00:15:14;16.00;91.60
45785;DHT22;31489;51.404;5.474;2023-11-19T00:17:41;16.00;91.50
45785;DHT22;31489;51.404;5.474;2023-11-19T00:20:14;16.00;91.50
45785;DHT22;31489;51.404;5.474;2023-11-19T00:22:41;16.00;91.60
45785;DHT22;31489;51.404;5.474;2023-11-19T00:25:08;16.00;91.50
45785;DHT22;31489;51.404;5.474;2023-11-19T00:27:34;16.00;91.50
45785;DHT22;31489;51.404;5.474;2023-11-19T00:29:59;16.00;91.50
45785;DHT22;31489;51.404;5.474;2023-11-19T00:32:25;16.10;91.50
45785;DHT22;31489;51.404;5.474;2023-11-19T00:34:50;16.10;91.50
45785;DHT22;31489;51.404;5.474;2023-11-19T00:37:17;16.10;91.40
45785;DHT22;31489;51.404;5.474;2023-11-19T00:39:43;16.10;91.40
45785;DHT22;31489;51.404;5.474;2023-11-19T00:42:11;16.10;91.40
45785;DHT22;31489;51.404;5.474;2023-11-19T00:44:37;16.10;91.40
45785;DHT22;31489;51.404;5.474;2023-11-19T00:47:03;16.10;91.40
45785;DHT22;31489;51.404;5.474;2023-11-19T00:49:30;16.10;91.30
45785;DHT22;31489;51.404;5.474;2023-11-19T00:51:58;16.10;91.30
45785;DHT22;31489;51.404;5.474;2023-11-19T00:54:24;16.10;91.30
45785;DHT22;31489;51.404;5.474;2023-11-19T00:56:54;16.10;91.20
45785;DHT22;31489;51.404;5.474;2023-11-19T00:59:20;16.10;91.20
45785;DHT22;31489;51.404;5.474;2023-11-19T01:01:46;16.10;91.20
45785;DHT22;31489;51.404;5.474;2023-11-19T01:04:16;16.10;91.20
45785;DHT22;31489;51.404;5.474;2023-11-19T01:06:42;16.20;91.20
45785;DHT22;31489;51.404;5.474;2023-11-19T01:09:08;16.20;91.10
45785;DHT22;31489;51.404;5.474;2023-11-19T01:11:35;16.20;91.10
45785;DHT22;31489;51.404;5.474;2023-11-19T01:14:01;16.20;91.10
45785;DHT22;31489;51.404;5.474;2023-11-19T01:16:27;16.20;91.10
45785;DHT22;31489;51.404;5.474;2023-11-19T01:18:53;16.20;91.10
45785;DHT22;31489;51.404;5.474;2023-11-19T01:21:19;16.20;91.00
45785;DHT22;31489;51.404;5.474;2023-11-19T01:23:45;16.20;90.90
45785;DHT22;31489;51.404;5.474;2023-11-19T01:26:12;16.20;90.90
45785;DHT22;31489;51.404;5.474;2023-11-19T01:28:38;16.20;90.80
45785;DHT22;31489;51.404;5.474;2023-11-19T01:31:11;16.20;90.80
45785;DHT22;31489;51.404;5.474;2023-11-19T01:33:36;16.20;90.80
45785;DHT22;31489;51.404;5.474;2023-11-19T01:36:02;16.20;90.70
45785;DHT22;31489;51.404;5.474;2023-11-19T01:38:29;16.20;90.70
45785;DHT22;31489;51.404;5.474;2023-11-19T01:40:56;16.10;90.70
45785;DHT22;31489;51.404;5.474;2023-11-19T01:43:36;16.20;90.80
45785;DHT22;31489;51.404;5.474;2023-11-19T01:46:03;16.20;90.80
45785;DHT22;31489;51.404;5.474;2023-11-19T01:48:30;16.10;90.70
45785;DHT22;31489;51.404;5.474;2023-11-19T01:50:57;16.10;90.70
45785;DHT22;31489;51.404;5.474;2023-11-19T01:53:23;16.10;90.70
45785;DHT22;31489;51.404;5.474;2023-11-19T01:55:49;16.10;90.70
45785;DHT22;31489;51.404;5.474;2023-11-19T01:58:15;16.10;90.70
45785;DHT22;31489;51.404;5.474;2023-11-19T02:00:41;16.10;90.80
45785;DHT22;31489;51.404;5.474;2023-11-19T02:03:08;16.10;90.80
45785;DHT22;31489;51.404;5.474;2023-11-19T02:05:34;16.10;90.80
45785;DHT22;31489;51.404;5.474;2023-11-19T02:08:01;16.10;90.80
45785;DHT22;31489;51.404;5.474;2023-11-19T02:10:27;16.10;90.80
45785;DHT22;31489;51.404;5.474;2023-11-19T02:12:52;16.10;90.80
45785;DHT22;31489;51.404;5.474;2023-11-19T02:15:18;16.10;90.80
45785;DHT22;31489;51.404;5.474;2023-11-19T02:17:44;16.10;90.80
45785;DHT22;31489;51.404;5.474;2023-11-19T02:20:10;16.10;90.70
45785;DHT22;31489;51.404;5.474;2023-11-19T02:22:40;16.00;90.70
45785;DHT22;31489;51.404;5.474;2023-11-19T02:25:17;16.00;90.60
45785;DHT22;31489;51.404;5.474;2023-11-19T02:28:02;16.00;90.50
45785;DHT22;31489;51.404;5.474;2023-11-19T02:30:29;16.00;90.40
45785;DHT22;31489;51.404;5.474;2023-11-19T02:32:55;16.00;90.40
45785;DHT22;31489;51.404;5.474;2023-11-19T02:35:26;15.90;90.30
45785;DHT22;31489;51.404;5.474;2023-11-19T02:37:52;15.90;90.20
45785;DHT22;31489;51.404;5.474;2023-11-19T02:40:17;15.90;90.20
45785;DHT22;31489;51.404;5.474;2023-11-19T02:42:43;15.90;90.20
45785;DHT22;31489;51.404;5.474;2023-11-19T02:45:09;15.90;90.10
45785;DHT22;31489;51.404;5.474;2023-11-19T02:47:40;15.80;90.10
45785;DHT22;31489;51.404;5.474;2023-11-19T02:50:08;15.80;90.10
45785;DHT22;31489;51.404;5.474;2023-11-19T02:52:43;15.80;90.30
45785;DHT22;31489;51.404;5.474;2023-11-19T02:55:10;15.80;90.30
45785;DHT22;31489;51.404;5.474;2023-11-19T02:57:39;15.70;89.90
45785;DHT22;31489;51.404;5.474;2023-11-19T03:00:13;15.70;89.90
45785;DHT22;31489;51.404;5.474;2023-11-19T03:02:40;15.70;89.80
45785;DHT22;31489;51.404;5.474;2023-11-19T03:05:11;15.70;89.70
45785;DHT22;31489;51.404;5.474;2023-11-19T03:07:37;15.60;89.70
45785;DHT22;31489;51.404;5.474;2023-11-19T03:10:03;15.60;89.50
45785;DHT22;31489;51.404;5.474;2023-11-19T03:12:31;15.60;89.40
45785;DHT22;31489;51.404;5.474;2023-11-19T03:14:57;15.60;89.40
45785;DHT22;31489;51.404;5.474;2023-11-19T03:17:22;15.60;89.30
45785;DHT22;31489;51.404;5.474;2023-11-19T03:19:49;15.60;89.30
45785;DHT22;31489;51.404;5.474;2023-11-19T03:22:15;15.50;89.20
45785;DHT22;31489;51.404;5.474;2023-11-19T03:24:40;15.50;89.10
45785;DHT22;31489;51.404;5.474;2023-11-19T03:27:06;15.50;89.00
45785;DHT22;31489;51.404;5.474;2023-11-19T03:29:32;15.50;89.60
45785;DHT22;31489;51.404;5.474;2023-11-19T03:31:57;15.50;89.00
45785;DHT22;31489;51.404;5.474;2023-11-19T03:34:23;15.40;89.00
45785;DHT22;31489;51.404;5.474;2023-11-19T03:36:49;15.40;89.00
45785;DHT22;31489;51.404;5.474;2023-11-19T03:39:14;15.40;89.10
45785;DHT22;31489;51.404;5.474;2023-11-19T03:41:40;15.40;89.80
45785;DHT22;31489;51.404;5.474;2023-11-19T03:44:05;15.40;89.30
45785;DHT22;31489;51.404;5.474;2023-11-19T03:46:31;15.40;89.30
45785;DHT22;31489;51.404;5.474;2023-11-19T03:48:57;15.40;89.30
45785;DHT22;31489;51.404;5.474;2023-11-19T03:51:22;15.40;89.30
45785;DHT22;31489;51.404;5.474;2023-11-19T03:53:48;15.40;89.30
45785;DHT22;31489;51.404;5.474;2023-11-19T03:56:13;15.40;89.30
45785;DHT22;31489;51.404;5.474;2023-11-19T03:58:39;15.40;89.20
45785;DHT22;31489;51.404;5.474;2023-11-19T04:01:06;15.40;89.10
45785;DHT22;31489;51.404;5.474;2023-11-19T04:03:36;15.40;89.10
45785;DHT22;31489;51.404;5.474;2023-11-19T04:06:02;15.40;89.10
45785;DHT22;31489;51.404;5.474;2023-11-19T04:08:27;15.40;89.10
45785;DHT22;31489;51.404;5.474;2023-11-19T04:10:53;15.40;89.00
45785;DHT22;31489;51.404;5.474;2023-11-19T04:13:18;15.40;89.00
45785;DHT22;31489;51.404;5.474;2023-11-19T04:15:45;15.40;89.70
45785;DHT22;31489;51.404;5.474;2023-11-19T04:18:11;15.40;89.10
45785;DHT22;31489;51.404;5.474;2023-11-19T04:20:36;15.40;89.20
45785;DHT22;31489;51.404;5.474;2023-11-19T04:23:02;15.40;89.20
45785;DHT22;31489;51.404;5.474;2023-11-19T04:25:27;15.40;89.20
45785;DHT22;31489;51.404;5.474;2023-11-19T04:27:54;15.40;89.10
45785;DHT22;31489;51.404;5.474;2023-11-19T04:30:19;15.40;89.00
45785;DHT22;31489;51.404;5.474;2023-11-19T04:32:45;15.40;88.90
45785;DHT22;31489;51.404;5.474;2023-11-19T04:35:11;15.40;88.70
45785;DHT22;31489;51.404;5.474;2023-11-19T04:37:37;15.40;88.70
45785;DHT22;31489;51.404;5.474;2023-11-19T04:40:03;15.40;88.60
45785;DHT22;31489;51.404;5.474;2023-11-19T04:42:29;15.40;88.60
45785;DHT22;31489;51.404;5.474;2023-11-19T04:44:55;15.40;88.60
45785;DHT22;31489;51.404;5.474;2023-11-19T04:47:21;15.40;88.40
45785;DHT22;31489;51.404;5.474;2023-11-19T04:49:46;15.40;88.40
45785;DHT22;31489;51.404;5.474;2023-11-19T04:52:12;15.50;88.30
45785;DHT22;31489;51.404;5.474;2023-11-19T04:54:44;15.50;88.00
45785;DHT22;31489;51.404;5.474;2023-11-19T04:57:10;15.40;87.70
45785;DHT22;31489;51.404;5.474;2023-11-19T04:59:38;15.40;87.80
45785;DHT22;31489;51.404;5.474;2023-11-19T05:02:04;15.40;87.80
45785;DHT22;31489;51.404;5.474;2023-11-19T05:04:31;15.40;87.70
45785;DHT22;31489;51.404;5.474;2023-11-19T05:06:56;15.40;87.70
45785;DHT22;31489;51.404;5.474;2023-11-19T05:09:22;15.40;87.40
45785;DHT22;31489;51.404;5.474;2023-11-19T05:11:48;15.40;87.30
45785;DHT22;31489;51.404;5.474;2023-11-19T05:14:14;15.40;87.20
45785;DHT22;31489;51.404;5.474;2023-11-19T05:16:40;15.30;87.00
45785;DHT22;31489;51.404;5.474;2023-11-19T05:19:06;15.40;86.80
45785;DHT22;31489;51.404;5.474;2023-11-19T05:21:31;15.30;86.70
45785;DHT22;31489;51.404;5.474;2023-11-19T05:23:57;15.30;86.70
45785;DHT22;31489;51.404;5.474;2023-11-19T05:26:23;15.30;86.60
45785;DHT22;31489;51.404;5.474;2023-11-19T05:28:50;15.30;86.70
45785;DHT22;31489;51.404;5.474;2023-11-19T05:31:16;15.20;86.60
45785;DHT22;31489;51.404;5.474;2023-11-19T05:33:42;15.30;86.70
45785;DHT22;31489;51.404;5.474;2023-11-19T05:36:08;15.20;86.70
45785;DHT22;31489;51.404;5.474;2023-11-19T05:38:35;15.20;86.50
45785;DHT22;31489;51.404;5.474;2023-11-19T05:41:01;15.20;86.50
45785;DHT22;31489;51.404;5.474;2023-11-19T05:43:27;15.20;86.40
45785;DHT22;31489;51.404;5.474;2023-11-19T05:45:52;15.20;86.50
45785;DHT22;31489;51.404;5.474;2023-11-19T05:48:18;15.20;86.40
45785;DHT22;31489;51.404;5.474;2023-11-19T05:50:44;15.20;86.30
45785;DHT22;31489;51.404;5.474;2023-11-19T05:53:10;15.20;86.30
45785;DHT22;31489;51.404;5.474;2023-11-19T05:55:39;15.10;86.10
45785;DHT22;31489;51.404;5.474;2023-11-19T05:58:14;15.20;86.00
45785;DHT22;31489;51.404;5.474;2023-11-19T06:00:40;15.10;86.50
45785;DHT22;31489;51.404;5.474;2023-11-19T06:03:07;15.10;85.90
45785;DHT22;31489;51.404;5.474;2023-11-19T06:05:33;15.10;85.80
45785;DHT22;31489;51.404;5.474;2023-11-19T06:07:58;15.00;85.80
45785;DHT22;31489;51.404;5.474;2023-11-19T06:10:24;15.00;85.70
45785;DHT22;31489;51.404;5.474;2023-11-19T06:12:57;15.00;85.70
45785;DHT22;31489;51.404;5.474;2023-11-19T06:15:27;15.00;86.10
45785;DHT22;31489;51.404;5.474;2023-11-19T06:17:53;15.00;85.50
45785;DHT22;31489;51.404;5.474;2023-11-19T06:20:18;15.00;85.50
45785;DHT22;31489;51.404;5.474;2023-11-19T06:22:45;14.90;85.40
45785;DHT22;31489;51.404;5.474;2023-11-19T06:25:11;14.90;85.50
45785;DHT22;31489;51.404;5.474;2023-11-19T06:27:37;14.90;85.30
45785;DHT22;31489;51.404;5.474;2023-11-19T06:30:03;14.90;85.30
45785;DHT22;31489;51.404;5.474;2023-11-19T06:32:29;14.90;85.30
45785;DHT22;31489;51.404;5.474;2023-11-19T06:34:55;14.90;85.30
45785;DHT22;31489;51.404;5.474;2023-11-19T06:37:20;14.80;85.30
45785;DHT22;31489;51.404;5.474;2023-11-19T06:39:46;14.80;85.80
45785;DHT22;31489;51.404;5.474;2023-11-19T06:42:11;14.80;85.10
45785;DHT22;31489;51.404;5.474;2023-11-19T06:44:37;14.80;84.90
45785;DHT22;31489;51.404;5.474;2023-11-19T06:47:03;14.70;84.90
45785;DHT22;31489;51.404;5.474;2023-11-19T06:49:28;14.80;85.00
45785;DHT22;31489;51.404;5.474;2023-11-19T06:51:54;14.80;84.90
45785;DHT22;31489;51.404;5.474;2023-11-19T06:54:19;14.70;84.60
45785;DHT22;31489;51.404;5.474;2023-11-19T06:56:45;14.70;84.70
45785;DHT22;31489;51.404;5.474;2023-11-19T06:59:10;14.70;84.70
45785;DHT22;31489;51.404;5.474;2023-11-19T07:01:36;14.70;84.80
45785;DHT22;31489;51.404;5.474;2023-11-19T07:04:03;14.70;84.60
45785;DHT22;31489;51.404;5.474;2023-11-19T07:06:35;14.70;84.60
45785;DHT22;31489;51.404;5.474;2023-11-19T07:09:01;14.70;84.50
45785;DHT22;31489;51.404;5.474;2023-11-19T07:11:38;14.60;84.50
45785;DHT22;31489;51.404;5.474;2023-11-19T07:14:05;14.60;84.50
45785;DHT22;31489;51.404;5.474;2023-11-19T07:16:34;14.60;84.60
45785;DHT22;31489;51.404;5.474;2023-11-19T07:19:03;14.60;84.70
45785;DHT22;31489;51.404;5.474;2023-11-19T07:21:30;14.60;84.50
45785;DHT22;31489;51.404;5.474;2023-11-19T07:23:56;14.60;84.60
45785;DHT22;31489;51.404;5.474;2023-11-19T07:26:22;14.60;84.70
45785;DHT22;31489;51.404;5.474;2023-11-19T07:28:49;14.60;84.70
45785;DHT22;31489;51.404;5.474;2023-11-19T07:31:14;14.60;84.70
45785;DHT22;31489;51.404;5.474;2023-11-19T07:33:40;14.60;84.70
45785;DHT22;31489;51.404;5.474;2023-11-19T07:36:10;14.60;84.60
45785;DHT22;31489;51.404;5.474;2023-11-19T07:38:36;14.60;84.70
45785;DHT22;31489;51.404;5.474;2023-11-19T07:41:02;14.60;84.70
45785;DHT22;31489;51.404;5.474;2023-11-19T07:43:28;14.60;84.80
45785;DHT22;31489;51.404;5.474;2023-11-19T07:45:53;14.60;84.80
45785;DHT22;31489;51.404;5.474;2023-11-19T07:48:19;14.60;85.20
45785;DHT22;31489;51.404;5.474;2023-11-19T07:50:55;14.60;84.70
45785;DHT22;31489;51.404;5.474;2023-11-19T07:53:20;14.60;84.60
45785;DHT22;31489;51.404;5.474;2023-11-19T07:55:46;14.60;84.70
45785;DHT22;31489;51.404;5.474;2023-11-19T07:58:12;14.60;84.70
45785;DHT22;31489;51.404;5.474;2023-11-19T08:00:38;14.60;84.70
45785;DHT22;31489;51.404;5.474;2023-11-19T08:03:04;14.70;84.70
45785;DHT22;31489;51.404;5.474;2023-11-19T08:05:31;14.70;84.80
45785;DHT22;31489;51.404;5.474;2023-11-19T08:07:57;14.70;84.60
45785;DHT22;31489;51.404;5.474;2023-11-19T08:10:23;14.70;84.60
45785;DHT22;31489;51.404;5.474;2023-11-19T08:12:49;14.70;84.60
45785;DHT22;31489;51.404;5.474;2023-11-19T08:15:15;14.70;84.60
45785;DHT22;31489;51.404;5.474;2023-11-19T08:17:43;14.70;84.60
45785;DHT22;31489;51.404;5.474;2023-11-19T08:20:10;14.70;84.60
45785;DHT22;31489;51.404;5.474;2023-11-19T08:22:39;14.70;84.50
45785;DHT22;31489;51.404;5.474;2023-11-19T08:25:06;14.80;84.40
45785;DHT22;31489;51.404;5.474;2023-11-19T08:27:31;14.80;84.50
45785;DHT22;31489;51.404;5.474;2023-11-19T08:29:58;14.80;84.50
45785;DHT22;31489;51.404;5.474;2023-11-19T08:32:27;14.80;84.60
45785;DHT22;31489;51.404;5.474;2023-11-19T08:34:53;14.90;84.40
45785;DHT22;31489;51.404;5.474;2023-11-19T08:37:19;14.80;84.40
45785;DHT22;31489;51.404;5.474;2023-11-19T08:39:47;14.90;84.50
45785;DHT22;31489;51.404;5.474;2023-11-19T08:42:13;14.90;84.50
45785;DHT22;31489;51.404;5.474;2023-11-19T08:44:39;14.90;84.60
45785;DHT22;31489;51.404;5.474;2023-11-19T08:47:09;15.00;84.70
45785;DHT22;31489;51.404;5.474;2023-11-19T08:49:35;15.00;84.60
45785;DHT22;31489;51.404;5.474;2023-11-19T08:52:00;15.00;84.70
45785;DHT22;31489;51.404;5.474;2023-11-19T08:54:26;15.00;84.60
45785;DHT22;31489;51.404;5.474;2023-11-19T08:56:52;15.10;84.50
45785;DHT22;31489;51.404;5.474;2023-11-19T08:59:18;15.00;84.50
45785;DHT22;31489;51.404;5.474;2023-11-19T09:01:44;15.10;84.60
45785;DHT22;31489;51.404;5.474;2023-11-19T09:04:11;15.10;84.20
45785;DHT22;31489;51.404;5.474;2023-11-19T09:06:37;15.20;84.30
45785;DHT22;31489;51.404;5.474;2023-11-19T09:09:02;15.10;84.40
45785;DHT22;31489;51.404;5.474;2023-11-19T09:11:31;15.20;84.40
45785;DHT22;31489;51.404;5.474;2023-11-19T09:13:57;15.30;84.40
45785;DHT22;31489;51.404;5.474;2023-11-19T09:16:22;15.30;84.20
45785;DHT22;31489;51.404;5.474;2023-11-19T09:18:48;15.30;84.00
45785;DHT22;31489;51.404;5.474;2023-11-19T09:21:13;15.40;84.20
45785;DHT22;31489;51.404;5.474;2023-11-19T09:23:39;15.40;83.90
45785;DHT22;31489;51.404;5.474;2023-11-19T09:26:06;15.50;83.70
45785;DHT22;31489;51.404;5.474;2023-11-19T09:28:32;15.50;83.60
45785;DHT22;31489;51.404;5.474;2023-11-19T09:30:57;15.60;83.50
45785;DHT22;31489;51.404;5.474;2023-11-19T09:33:24;15.60;83.20
45785;DHT22;31489;51.404;5.474;2023-11-19T09:35:50;15.60;83.20
45785;DHT22;31489;51.404;5.474;2023-11-19T09:38:16;15.70;82.90
45785;DHT22;31489;51.404;5.474;2023-11-19T09:40:42;15.70;82.90
45785;DHT22;31489;51.404;5.474;2023-11-19T09:43:08;15.70;82.80
45785;DHT22;31489;51.404;5.474;2023-11-19T09:45:48;15.80;82.70
45785;DHT22;31489;51.404;5.474;2023-11-19T09:48:18;15.80;81.80
45785;DHT22;31489;51.404;5.474;2023-11-19T09:50:47;15.90;82.90
45785;DHT22;31489;51.404;5.474;2023-11-19T09:53:14;15.80;82.30
45785;DHT22;31489;51.404;5.474;2023-11-19T09:55:41;16.00;82.10
45785;DHT22;31489;51.404;5.474;2023-11-19T09:58:07;16.00;82.00
45785;DHT22;31489;51.404;5.474;2023-11-19T10:00:33;16.10;82.40
45785;DHT22;31489;51.404;5.474;2023-11-19T10:02:59;16.20;83.30
45785;DHT22;31489;51.404;5.474;2023-11-19T10:05:25;16.40;83.10
45785;DHT22;31489;51.404;5.474;2023-11-19T10:07:54;16.50;82.60
45785;DHT22;31489;51.404;5.474;2023-11-19T10:10:21;16.80;82.60
45785;DHT22;31489;51.404;5.474;2023-11-19T10:12:46;17.00;82.60
45785;DHT22;31489;51.404;5.474;2023-11-19T10:15:24;17.30;82.40
45785;DHT22;31489;51.404;5.474;2023-11-19T10:17:50;17.60;79.70
45785;DHT22;31489;51.404;5.474;2023-11-19T10:20:17;17.80;79.80
45785;DHT22;31489;51.404;5.474;2023-11-19T10:22:42;18.00;80.20
45785;DHT22;31489;51.404;5.474;2023-11-19T10:25:27;18.30;80.00
45785;DHT22;31489;51.404;5.474;2023-11-19T10:27:53;18.50;77.60
45785;DHT22;31489;51.404;5.474;2023-11-19T10:30:26;18.70;78.50
45785;DHT22;31489;51.404;5.474;2023-11-19T10:33:08;18.90;76.50
45785;DHT22;31489;51.404;5.474;2023-11-19T10:35:36;18.90;75.30
45785;DHT22;31489;51.404;5.474;2023-11-19T10:38:14;19.00;75.90
45785;DHT22;31489;51.404;5.474;2023-11-19T10:40:42;18.90;74.20
45785;DHT22;31489;51.404;5.474;2023-11-19T10:43:09;18.80;75.10
45785;DHT22;31489;51.404;5.474;2023-11-19T10:45:36;18.70;74.80
45785;DHT22;31489;51.404;5.474;2023-11-19T10:48:03;18.60;75.00
45785;DHT22;31489;51.404;5.474;2023-11-19T10:50:42;18.60;75.40
45785;DHT22;31489;51.404;5.474;2023-11-19T10:53:12;18.60;73.70
45785;DHT22;31489;51.404;5.474;2023-11-19T10:55:41;18.60;73.80
45785;DHT22;31489;51.404;5.474;2023-11-19T10:58:09;18.60;75.20
45785;DHT22;31489;51.404;5.474;2023-11-19T11:00:47;18.60;75.40
45785;DHT22;31489;51.404;5.474;2023-11-19T11:03:17;18.80;74.40
45785;DHT22;31489;51.404;5.474;2023-11-19T11:05:43;18.80;75.10
45785;DHT22;31489;51.404;5.474;2023-11-19T11:08:12;18.90;74.20
45785;DHT22;31489;51.404;5.474;2023-11-19T11:10:52;18.80;73.70
45785;DHT22;31489;51.404;5.474;2023-11-19T11:13:19;18.70;72.70
45785;DHT22;31489;51.404;5.474;2023-11-19T11:15:45;18.60;73.10
45785;DHT22;31489;51.404;5.474;2023-11-19T11:18:13;18.40;73.10
45785;DHT22;31489;51.404;5.474;2023-11-19T11:20:39;18.20;73.20
45785;DHT22;31489;51.404;5.474;2023-11-19T11:28:58;17.70;74.10
45785;DHT22;31489;51.404;5.474;2023-11-19T11:34:14;17.40;74.40
45785;DHT22;31489;51.404;5.474;2023-11-19T11:37:03;17.30;74.80
45785;DHT22;31489;51.404;5.474;2023-11-19T11:39:32;17.20;75.70
45785;DHT22;31489;51.404;5.474;2023-11-19T11:47:23;16.70;77.10
45785;DHT22;31489;51.404;5.474;2023-11-19T11:49:50;16.50;77.30
45785;DHT22;31489;51.404;5.474;2023-11-19T11:52:17;16.40;77.50
45785;DHT22;31489;51.404;5.474;2023-11-19T11:54:43;16.30;78.20
45785;DHT22;31489;51.404;5.474;2023-11-19T11:57:10;16.10;78.60
45785;DHT22;31489;51.404;5.474;2023-11-19T11:59:45;16.10;79.80
45785;DHT22;31489;51.404;5.474;2023-11-19T12:02:13;16.20;81.00
45785;DHT22;31489;51.404;5.474;2023-11-19T12:04:42;16.40;81.60
45785;DHT22;31489;51.404;5.474;2023-11-19T12:07:20;16.70;82.00
45785;DHT22;31489;51.404;5.474;2023-11-19T12:10:07;17.00;81.50
45785;DHT22;31489;51.404;5.474;2023-11-19T12:12:42;17.50;80.20
45785;DHT22;31489;51.404;5.474;2023-11-19T12:15:08;17.90;80.80
45785;DHT22;31489;51.404;5.474;2023-11-19T12:17:41;18.20;78.80
45785;DHT22;31489;51.404;5.474;2023-11-19T12:20:10;18.30;77.10
45785;DHT22;31489;51.404;5.474;2023-11-19T12:22:41;18.40;76.30
45785;DHT22;31489;51.404;5.474;2023-11-19T12:25:08;18.30;75.80
45785;DHT22;31489;51.404;5.474;2023-11-19T12:27:41;18.30;75.50
45785;DHT22;31489;51.404;5.474;2023-11-19T12:30:07;18.20;75.10
45785;DHT22;31489;51.404;5.474;2023-11-19T12:32:45;18.00;75.20
45785;DHT22;31489;51.404;5.474;2023-11-19T12:35:12;17.90;74.70
45785;DHT22;31489;51.404;5.474;2023-11-19T12:37:48;17.80;74.80
45785;DHT22;31489;51.404;5.474;2023-11-19T12:42:45;17.50;75.10
45785;DHT22;31489;51.404;5.474;2023-11-19T12:45:11;17.40;75.50
45785;DHT22;31489;51.404;5.474;2023-11-19T12:47:39;17.30;75.80
45785;DHT22;31489;51.404;5.474;2023-11-19T12:50:06;17.20;75.90
45785;DHT22;31489;51.404;5.474;2023-11-19T12:52:32;17.10;76.00
45785;DHT22;31489;51.404;5.474;2023-11-19T12:54:58;17.10;76.40
45785;DHT22;31489;51.404;5.474;2023-11-19T13:00:04;17.00;76.60
45785;DHT22;31489;51.404;5.474;2023-11-19T13:02:53;16.90;76.70
45785;DHT22;31489;51.404;5.474;2023-11-19T13:05:32;16.90;77.40
45785;DHT22;31489;51.404;5.474;2023-11-19T13:08:09;16.80;77.80
45785;DHT22;31489;51.404;5.474;2023-11-19T13:10:52;16.70;77.80
45785;DHT22;31489;51.404;5.474;2023-11-19T13:13:19;16.70;78.50
45785;DHT22;31489;51.404;5.474;2023-11-19T13:15:45;16.50;78.40
45785;DHT22;31489;51.404;5.474;2023-11-19T13:18:11;16.40;78.80
45785;DHT22;31489;51.404;5.474;2023-11-19T13:20:37;16.30;79.10
45785;DHT22;31489;51.404;5.474;2023-11-19T13:23:04;16.20;79.90
45785;DHT22;31489;51.404;5.474;2023-11-19T13:25:30;16.10;80.40
45785;DHT22;31489;51.404;5.474;2023-11-19T13:27:57;16.00;80.80
45785;DHT22;31489;51.404;5.474;2023-11-19T13:30:24;16.10;81.20
45785;DHT22;31489;51.404;5.474;2023-11-19T13:32:50;16.10;81.70
45785;DHT22;31489;51.404;5.474;2023-11-19T13:35:17;16.30;82.00
45785;DHT22;31489;51.404;5.474;2023-11-19T13:37:44;16.40;81.70
45785;DHT22;31489;51.404;5.474;2023-11-19T13:40:10;16.50;81.20
45785;DHT22;31489;51.404;5.474;2023-11-19T13:42:39;16.60;80.20
45785;DHT22;31489;51.404;5.474;2023-11-19T13:45:11;16.60;79.80
45785;DHT22;31489;51.404;5.474;2023-11-19T13:47:43;16.70;79.50
45785;DHT22;31489;51.404;5.474;2023-11-19T13:50:16;16.60;78.80
45785;DHT22;31489;51.404;5.474;2023-11-19T13:52:45;16.60;78.90
45785;DHT22;31489;51.404;5.474;2023-11-19T13:55:13;16.60;79.00
45785;DHT22;31489;51.404;5.474;2023-11-19T13:57:40;16.50;79.20
45785;DHT22;31489;51.404;5.474;2023-11-19T14:00:07;16.50;79.90
45785;DHT22;31489;51.404;5.474;2023-11-19T14:02:39;16.50;80.30
45785;DHT22;31489;51.404;5.474;2023-11-19T14:05:06;16.50;80.10
45785;DHT22;31489;51.404;5.474;2023-11-19T14:07:32;16.60;80.00
45785;DHT22;31489;51.404;5.474;2023-11-19T14:09:58;16.50;79.80
45785;DHT22;31489;51.404;5.474;2023-11-19T14:12:24;16.50;79.70
45785;DHT22;31489;51.404;5.474;2023-11-19T14:14:49;16.50;79.60
45785;DHT22;31489;51.404;5.474;2023-11-19T14:17:15;16.40;79.90
45785;DHT22;31489;51.404;5.474;2023-11-19T14:19:42;16.30;80.20
45785;DHT22;31489;51.404;5.474;2023-11-19T14:22:08;16.30;80.40
45785;DHT22;31489;51.404;5.474;2023-11-19T14:24:34;16.20;80.60
45785;DHT22;31489;51.404;5.474;2023-11-19T14:27:00;16.00;80.70
45785;DHT22;31489;51.404;5.474;2023-11-19T14:29:26;15.90;81.20
45785;DHT22;31489;51.404;5.474;2023-11-19T14:31:53;15.90;81.30
45785;DHT22;31489;51.404;5.474;2023-11-19T14:34:20;15.70;81.30
45785;DHT22;31489;51.404;5.474;2023-11-19T14:36:46;15.70;81.80
45785;DHT22;31489;51.404;5.474;2023-11-19T14:39:12;15.60;82.00
45785;DHT22;31489;51.404;5.474;2023-11-19T14:41:38;15.50;82.00
45785;DHT22;31489;51.404;5.474;2023-11-19T14:44:04;15.50;82.10
45785;DHT22;31489;51.404;5.474;2023-11-19T14:46:31;15.40;82.20
45785;DHT22;31489;51.404;5.474;2023-11-19T14:48:56;15.40;82.90
45785;DHT22;31489;51.404;5.474;2023-11-19T14:51:22;15.30;82.40
45785;DHT22;31489;51.404;5.474;2023-11-19T14:53:48;15.30;82.60
45785;DHT22;31489;51.404;5.474;2023-11-19T14:56:13;15.30;82.90
45785;DHT22;31489;51.404;5.474;2023-11-19T14:58:39;15.30;83.00
45785;DHT22;31489;51.404;5.474;2023-11-19T15:01:06;15.20;83.40
45785;DHT22;31489;51.404;5.474;2023-11-19T15:03:33;15.20;83.30
45785;DHT22;31489;51.404;5.474;2023-11-19T15:05:58;15.20;83.30
45785;DHT22;31489;51.404;5.474;2023-11-19T15:08:25;15.20;83.50
45785;DHT22;31489;51.404;5.474;2023-11-19T15:10:50;15.10;83.70
45785;DHT22;31489;51.404;5.474;2023-11-19T15:13:16;15.10;84.10
45785;DHT22;31489;51.404;5.474;2023-11-19T15:15:42;15.10;84.20
45785;DHT22;31489;51.404;5.474;2023-11-19T15:18:08;15.10;84.50
45785;DHT22;31489;51.404;5.474;2023-11-19T15:20:35;15.00;84.40
45785;DHT22;31489;51.404;5.474;2023-11-19T15:23:01;15.00;84.40
45785;DHT22;31489;51.404;5.474;2023-11-19T15:25:27;15.00;84.50
45785;DHT22;31489;51.404;5.474;2023-11-19T15:27:53;15.00;84.50
45785;DHT22;31489;51.404;5.474;2023-11-19T15:30:19;14.90;84.60
45785;DHT22;31489;51.404;5.474;2023-11-19T15:32:45;15.00;84.60
45785;DHT22;31489;51.404;5.474;2023-11-19T15:35:12;14.90;84.60
45785;DHT22;31489;51.404;5.474;2023-11-19T15:37:38;14.90;84.60
45785;DHT22;31489;51.404;5.474;2023-11-19T15:40:09;14.90;84.40
45785;DHT22;31489;51.404;5.474;2023-11-19T15:42:40;14.80;84.20
45785;DHT22;31489;51.404;5.474;2023-11-19T15:45:07;14.80;84.50
45785;DHT22;31489;51.404;5.474;2023-11-19T15:47:35;14.80;84.50
45785;DHT22;31489;51.404;5.474;2023-11-19T15:50:02;14.80;84.50